createdAt,value
2022-12-08T00:00:08.626Z,15.07
2022-12-08T00:02:44.524Z,13.17
2022-12-08T00:05:32.585Z,16.87
2022-12-08T00:08:18.675Z,13.23
2022-12-08T00:10:49.667Z,15.97
2022-12-08T00:13:18.878Z,15.43
2022-12-08T00:15:47.772Z,16.43
2022-12-08T00:18:16.597Z,14.50
2022-12-08T00:20:46.326Z,16.20
2022-12-08T00:23:15.549Z,16.77
2022-12-08T00:25:43.912Z,14.60
2022-12-08T00:28:13.221Z,17.03
2022-12-08T00:30:41.825Z,16.23
2022-12-08T00:33:10.713Z,14.43
2022-12-08T00:35:43.090Z,18.50
2022-12-08T00:38:13.246Z,15.63
2022-12-08T00:40:45.900Z,16.97
2022-12-08T00:43:15.078Z,17.03
2022-12-08T00:45:44.373Z,18.33
2022-12-08T00:48:12.885Z,16.63
2022-12-08T00:50:41.241Z,16.70
2022-12-08T00:53:10.060Z,14.50
2022-12-08T00:55:39.825Z,16.93
2022-12-08T00:58:08.647Z,17.03
2022-12-08T01:00:37.328Z,20.80
2022-12-08T01:03:05.992Z,17.80
2022-12-08T01:05:34.854Z,16.57
2022-12-08T01:08:03.349Z,15.00
2022-12-08T01:10:32.874Z,18.60
2022-12-08T01:13:03.020Z,17.57
2022-12-08T01:15:31.981Z,18.00
2022-12-08T01:18:00.384Z,14.90
2022-12-08T01:20:29.657Z,16.90
2022-12-08T01:22:58.267Z,15.67
2022-12-08T01:25:27.534Z,15.70
2022-12-08T01:27:56.344Z,16.67
2022-12-08T01:30:26.153Z,20.30
2022-12-08T01:32:55.404Z,15.97
2022-12-08T01:35:24.045Z,14.73
2022-12-08T01:37:53.026Z,16.03
2022-12-08T01:40:21.797Z,14.63
2022-12-08T01:42:50.470Z,16.17
2022-12-08T01:45:24.338Z,16.43
2022-12-08T01:47:58.735Z,16.13
2022-12-08T01:50:28.898Z,18.13
2022-12-08T01:53:01.561Z,15.07
2022-12-08T01:55:34.866Z,16.97
2022-12-08T01:58:12.622Z,15.13
2022-12-08T02:00:41.018Z,17.13
2022-12-08T02:03:15.985Z,16.90
2022-12-08T02:05:45.733Z,18.50
2022-12-08T02:08:15.224Z,19.33
2022-12-08T02:10:45.215Z,17.13
2022-12-08T02:13:17.073Z,17.90
2022-12-08T02:15:57.465Z,16.57
2022-12-08T02:18:40.046Z,22.07
2022-12-08T02:21:14.390Z,19.40
2022-12-08T02:23:52.716Z,18.00
2022-12-08T02:27:06.155Z,21.73
2022-12-08T02:30:07.689Z,17.50
2022-12-08T02:33:13.703Z,16.47
2022-12-08T02:35:50.601Z,16.57
2022-12-08T02:38:29.810Z,17.63
2022-12-08T02:41:06.269Z,17.03
2022-12-08T02:43:42.570Z,17.93
2022-12-08T02:46:15.768Z,17.30
2022-12-08T02:48:45.253Z,15.37
2022-12-08T02:51:15.056Z,19.40
2022-12-08T02:53:45.766Z,17.37
2022-12-08T02:56:29.348Z,17.03
2022-12-08T02:59:14.638Z,16.67
2022-12-08T03:01:55.175Z,16.67
2022-12-08T03:04:32.211Z,17.57
2022-12-08T03:07:08.583Z,16.20
2022-12-08T03:09:41.156Z,15.63
2022-12-08T03:12:18.198Z,17.60
2022-12-08T03:14:51.823Z,19.23
2022-12-08T03:17:23.560Z,19.17
2022-12-08T03:19:55.502Z,19.43
2022-12-08T03:22:28.634Z,18.50
2022-12-08T03:24:58.365Z,18.70
2022-12-08T03:27:30.053Z,16.17
2022-12-08T03:30:01.082Z,17.53
2022-12-08T03:32:35.528Z,16.77
2022-12-08T03:35:06.951Z,17.67
2022-12-08T03:37:39.485Z,14.73
2022-12-08T03:40:11.053Z,16.73
2022-12-08T03:42:39.854Z,19.13
2022-12-08T03:45:09.211Z,18.33
2022-12-08T03:47:38.413Z,16.53
2022-12-08T03:50:09.175Z,16.30
2022-12-08T03:52:38.980Z,15.83
2022-12-08T03:55:09.251Z,18.27
2022-12-08T03:57:37.660Z,20.00
2022-12-08T04:00:09.000Z,17.50
2022-12-08T04:02:37.788Z,20.50
2022-12-08T04:05:06.675Z,16.83
2022-12-08T04:07:36.024Z,15.23
2022-12-08T04:10:07.124Z,17.03
2022-12-08T04:12:36.338Z,17.50
2022-12-08T04:15:05.817Z,18.33
2022-12-08T04:17:34.215Z,17.80
2022-12-08T04:20:04.386Z,19.33
2022-12-08T04:22:33.562Z,17.80
2022-12-08T04:25:02.100Z,18.73
2022-12-08T04:27:32.782Z,22.67
2022-12-08T04:30:01.522Z,18.03
2022-12-08T04:32:30.858Z,18.20
2022-12-08T04:34:59.663Z,22.53
2022-12-08T04:37:29.518Z,19.43
2022-12-08T04:39:58.638Z,19.33
2022-12-08T04:42:27.011Z,17.90
2022-12-08T04:44:57.465Z,17.47
2022-12-08T04:47:26.404Z,16.73
2022-12-08T04:49:55.131Z,18.73
2022-12-08T04:52:23.863Z,17.73
2022-12-08T04:54:53.606Z,18.20
2022-12-08T04:57:22.459Z,15.93
2022-12-08T04:59:50.963Z,17.43
2022-12-08T05:02:21.199Z,19.10
2022-12-08T05:04:49.656Z,20.20
2022-12-08T05:07:18.918Z,19.73
2022-12-08T05:09:47.387Z,16.27
2022-12-08T05:12:16.697Z,21.03
2022-12-08T05:14:45.107Z,18.87
2022-12-08T05:17:14.003Z,19.93
2022-12-08T05:19:43.818Z,17.90
2022-12-08T05:22:12.613Z,22.10
2022-12-08T05:24:47.242Z,20.00
2022-12-08T05:27:17.264Z,18.23
2022-12-08T05:29:45.824Z,21.10
2022-12-08T05:32:15.080Z,22.17
2022-12-08T05:34:45.016Z,20.07
2022-12-08T05:37:14.302Z,20.87
2022-12-08T05:39:42.685Z,20.43
2022-12-08T05:42:11.510Z,21.47
2022-12-08T05:44:40.498Z,22.07
2022-12-08T05:47:09.342Z,21.33
2022-12-08T05:49:37.828Z,18.47
2022-12-08T05:52:08.864Z,19.03
2022-12-08T05:54:37.810Z,22.23
2022-12-08T05:57:06.574Z,21.60
2022-12-08T05:59:34.968Z,19.20
2022-12-08T06:02:03.697Z,23.53
2022-12-08T06:04:32.340Z,23.13
2022-12-08T06:07:01.378Z,21.53
2022-12-08T06:09:31.165Z,21.90
2022-12-08T06:11:59.638Z,21.67
2022-12-08T06:14:28.046Z,21.97
2022-12-08T06:16:56.960Z,26.33
2022-12-08T06:19:25.421Z,21.53
2022-12-08T06:21:54.873Z,20.77
2022-12-08T06:24:23.758Z,19.47
2022-12-08T06:26:53.524Z,23.70
2022-12-08T06:29:22.372Z,25.20
2022-12-08T06:31:52.803Z,26.43
2022-12-08T06:34:21.661Z,23.47
2022-12-08T06:36:50.043Z,24.17
2022-12-08T06:39:19.604Z,25.87
2022-12-08T06:42:05.528Z,24.83
2022-12-08T06:44:35.311Z,19.57
2022-12-08T06:47:04.025Z,22.33
2022-12-08T06:49:32.434Z,25.57
2022-12-08T06:52:01.662Z,27.97
2022-12-08T06:54:30.340Z,21.07
2022-12-08T06:56:59.246Z,22.33
2022-12-08T06:59:27.624Z,28.77
2022-12-08T07:01:58.257Z,24.97
2022-12-08T07:04:26.732Z,24.00
2022-12-08T07:06:55.610Z,23.77
2022-12-08T07:09:24.071Z,25.63
2022-12-08T07:11:52.971Z,25.53
2022-12-08T07:14:24.803Z,27.47
2022-12-08T07:16:53.945Z,24.60
2022-12-08T07:19:23.763Z,21.17
2022-12-08T07:21:52.621Z,24.50
2022-12-08T07:24:21.555Z,23.10
2022-12-08T07:26:50.051Z,25.03
2022-12-08T07:29:24.605Z,22.83
2022-12-08T07:31:54.534Z,25.07
2022-12-08T07:34:25.185Z,24.63
2022-12-08T07:36:53.592Z,24.47
2022-12-08T07:39:22.035Z,23.83
2022-12-08T07:41:50.593Z,24.30
2022-12-08T07:44:19.434Z,22.07
2022-12-08T07:46:47.898Z,25.80
2022-12-08T07:49:16.774Z,23.10
2022-12-08T07:51:46.570Z,24.27
2022-12-08T07:54:15.479Z,23.50
2022-12-08T07:56:44.305Z,24.37
2022-12-08T07:59:12.695Z,22.77
2022-12-08T08:01:45.281Z,22.63
2022-12-08T08:04:14.324Z,25.20
2022-12-08T08:06:42.692Z,26.10
2022-12-08T08:09:13.380Z,23.13
2022-12-08T08:11:42.252Z,25.43
2022-12-08T08:14:10.673Z,22.47
2022-12-08T08:16:42.025Z,24.13
2022-12-08T08:19:10.545Z,27.97
2022-12-08T08:21:46.685Z,27.13
2022-12-08T08:24:17.578Z,24.07
2022-12-08T08:26:46.694Z,24.90
2022-12-08T08:29:15.647Z,28.90
2022-12-08T08:31:44.121Z,39.77
2022-12-08T08:34:13.077Z,30.80
2022-12-08T08:36:41.724Z,23.60
2022-12-08T08:39:10.154Z,26.30
2022-12-08T08:41:40.674Z,26.07
2022-12-08T08:44:09.078Z,23.23
2022-12-08T08:46:38.373Z,23.67
2022-12-08T08:49:06.871Z,24.63
2022-12-08T08:51:35.737Z,22.33
2022-12-08T08:54:04.614Z,20.40
2022-12-08T08:56:33.527Z,19.70
2022-12-08T08:59:04.098Z,24.03
2022-12-08T09:01:32.824Z,24.50
2022-12-08T09:04:02.196Z,22.43
2022-12-08T09:06:31.115Z,25.00
2022-12-08T09:08:59.795Z,26.23
2022-12-08T09:11:28.405Z,23.07
2022-12-08T09:13:57.364Z,21.57
2022-12-08T09:16:27.235Z,22.47
2022-12-08T09:18:55.881Z,22.37
2022-12-08T09:21:27.353Z,24.67
2022-12-08T09:23:57.457Z,27.77
2022-12-08T09:26:27.944Z,22.40
2022-12-08T09:28:58.005Z,26.07
2022-12-08T09:31:27.869Z,28.10
2022-12-08T09:33:57.419Z,25.57
2022-12-08T09:36:25.898Z,26.53
2022-12-08T09:38:55.097Z,27.90
2022-12-08T09:41:38.906Z,27.87
2022-12-08T09:44:32.581Z,30.33
2022-12-08T09:47:05.142Z,25.60
2022-12-08T09:49:40.923Z,24.57
2022-12-08T09:52:20.804Z,26.77
2022-12-08T09:54:49.466Z,30.33
2022-12-08T09:57:22.160Z,24.60
2022-12-08T09:59:54.846Z,27.57
2022-12-08T10:02:26.024Z,28.67
2022-12-08T10:04:57.489Z,25.73
2022-12-08T10:07:35.245Z,23.90
2022-12-08T10:10:13.938Z,28.80
2022-12-08T10:12:47.483Z,27.77
2022-12-08T10:15:34.942Z,26.90
2022-12-08T10:18:13.117Z,27.23
2022-12-08T10:20:43.855Z,27.60
2022-12-08T10:23:23.602Z,28.43
2022-12-08T10:25:54.530Z,25.37
2022-12-08T10:28:23.323Z,21.40
2022-12-08T10:30:51.742Z,22.70
2022-12-08T10:33:23.796Z,22.73
2022-12-08T10:35:54.948Z,27.93
2022-12-08T10:38:27.380Z,25.97
2022-12-08T10:41:02.158Z,23.30
2022-12-08T10:43:30.703Z,23.73
2022-12-08T10:46:09.726Z,25.60
2022-12-08T10:48:49.583Z,24.40
2022-12-08T10:51:28.087Z,23.00
2022-12-08T10:53:57.407Z,25.93
2022-12-08T10:56:29.011Z,24.00
2022-12-08T10:59:17.651Z,25.27
2022-12-08T11:01:48.545Z,25.93
2022-12-08T11:04:21.029Z,27.47
2022-12-08T11:06:51.199Z,25.17
2022-12-08T11:09:27.243Z,22.70
2022-12-08T11:11:59.243Z,24.57
2022-12-08T11:14:30.320Z,30.93
2022-12-08T11:17:07.341Z,27.30
2022-12-08T11:19:40.999Z,29.43
2022-12-08T11:22:22.995Z,24.53
2022-12-08T11:24:58.506Z,26.03
2022-12-08T11:27:28.206Z,24.57
2022-12-08T11:29:57.137Z,24.90
2022-12-08T11:32:25.572Z,26.53
2022-12-08T11:35:01.584Z,26.73
2022-12-08T11:37:35.233Z,26.17
2022-12-08T11:40:09.544Z,28.90
2022-12-08T11:42:51.756Z,23.87
2022-12-08T11:45:26.783Z,24.37
2022-12-08T11:48:05.697Z,24.30
2022-12-08T11:50:43.495Z,28.67
2022-12-08T11:53:19.845Z,27.70
2022-12-08T11:55:53.925Z,28.60
2022-12-08T11:58:25.604Z,25.60
2022-12-08T12:00:54.760Z,25.33
2022-12-08T12:03:30.534Z,21.63
2022-12-08T12:06:38.072Z,22.27
2022-12-08T12:09:14.790Z,23.40
2022-12-08T12:12:11.649Z,24.30
2022-12-08T12:15:29.155Z,25.07
2022-12-08T12:18:02.892Z,21.57
2022-12-08T12:20:36.010Z,23.73
2022-12-08T12:23:14.272Z,22.00
2022-12-08T12:25:51.197Z,22.43
2022-12-08T12:28:20.596Z,23.00
2022-12-08T12:30:59.251Z,22.83
2022-12-08T12:33:28.684Z,20.37
2022-12-08T12:35:58.487Z,19.67
2022-12-08T12:38:52.308Z,21.23
2022-12-08T12:41:25.694Z,22.60
2022-12-08T12:44:11.380Z,22.23
2022-12-08T12:46:54.903Z,20.60
2022-12-08T12:50:07.181Z,20.60
2022-12-08T12:52:47.101Z,21.63
2022-12-08T12:55:52.578Z,21.63
2022-12-08T12:58:38.482Z,18.73
2022-12-08T13:01:54.086Z,17.67
2022-12-08T13:04:35.729Z,20.93
2022-12-08T13:07:04.835Z,22.00
2022-12-08T13:09:37.982Z,17.43
2022-12-08T13:12:14.297Z,21.77
2022-12-08T13:14:48.416Z,19.30
2022-12-08T13:17:25.157Z,20.87
2022-12-08T13:19:57.761Z,27.67
2022-12-08T13:22:51.066Z,19.70
2022-12-08T13:25:58.903Z,19.67
2022-12-08T13:28:31.223Z,31.27
2022-12-08T13:31:00.860Z,22.53
2022-12-08T13:33:33.088Z,21.83
2022-12-08T13:36:16.037Z,21.80
2022-12-08T13:38:47.687Z,20.00
2022-12-08T13:41:21.599Z,19.90
2022-12-08T13:44:50.272Z,19.07
2022-12-08T13:47:32.834Z,19.43
2022-12-08T13:54:16.408Z,22.07
2022-12-08T13:58:20.879Z,21.53
2022-12-08T14:01:06.454Z,19.57
2022-12-08T14:03:48.565Z,22.03
2022-12-08T14:06:31.380Z,22.63
2022-12-08T14:09:10.250Z,31.23
2022-12-08T14:11:42.269Z,26.97
2022-12-08T14:14:32.672Z,23.70
2022-12-08T14:17:12.363Z,22.70
2022-12-08T14:19:45.227Z,23.47
2022-12-08T14:22:16.478Z,21.60
2022-12-08T14:24:46.796Z,21.00
2022-12-08T14:27:18.348Z,23.03
2022-12-08T14:29:49.616Z,22.17
2022-12-08T14:32:25.745Z,27.90
2022-12-08T14:34:56.529Z,23.00
2022-12-08T14:37:27.220Z,20.67
2022-12-08T14:40:02.230Z,26.70
2022-12-08T14:42:31.218Z,23.23
2022-12-08T14:45:04.226Z,24.03
2022-12-08T14:47:35.381Z,22.30
2022-12-08T14:50:06.187Z,22.20
2022-12-08T14:52:34.850Z,21.93
2022-12-08T14:55:03.323Z,19.70
2022-12-08T14:57:36.569Z,22.27
2022-12-08T15:00:11.154Z,22.33
2022-12-08T15:02:47.129Z,21.17
2022-12-08T15:05:18.887Z,20.53
2022-12-08T15:07:50.359Z,21.50
2022-12-08T15:10:29.554Z,42.60
2022-12-08T15:13:01.048Z,26.27
2022-12-08T15:15:30.917Z,32.77
2022-12-08T15:18:04.082Z,28.10
2022-12-08T15:20:42.210Z,24.47
2022-12-08T15:23:22.755Z,22.07
2022-12-08T15:25:51.723Z,26.73
2022-12-08T15:28:28.091Z,23.03
2022-12-08T15:31:00.361Z,22.43
2022-12-08T15:33:30.196Z,22.90
2022-12-08T15:35:58.655Z,22.77
2022-12-08T15:38:29.395Z,23.27
2022-12-08T15:40:59.093Z,20.20
2022-12-08T15:43:28.191Z,21.73
2022-12-08T15:45:59.889Z,23.47
2022-12-08T15:48:31.702Z,21.37
2022-12-08T15:51:02.440Z,23.17
2022-12-08T15:53:31.872Z,19.87
2022-12-08T15:56:26.889Z,20.13
2022-12-08T15:58:54.031Z,21.57
2022-12-08T16:01:23.498Z,24.17
2022-12-08T16:07:19.849Z,28.57
2022-12-08T16:09:34.840Z,24.27
2022-12-08T16:12:21.072Z,22.80
2022-12-08T16:17:38.871Z,24.87
2022-12-08T16:20:13.923Z,23.73
2022-12-08T16:23:13.091Z,25.47
2022-12-08T16:25:52.661Z,25.57
2022-12-08T16:28:52.812Z,23.00
2022-12-08T16:31:16.675Z,25.47
2022-12-08T16:33:47.191Z,24.23
2022-12-08T16:36:17.340Z,22.83
2022-12-08T16:38:46.612Z,23.97
2022-12-08T16:41:45.149Z,25.73
2022-12-08T16:44:13.606Z,23.17
2022-12-08T16:46:42.055Z,20.97
2022-12-08T16:49:10.861Z,25.47
2022-12-08T16:51:43.908Z,23.00
2022-12-08T16:54:12.621Z,22.60
2022-12-08T16:56:41.284Z,24.40
2022-12-08T16:59:10.022Z,27.90
2022-12-08T17:01:38.593Z,22.93
2022-12-08T17:06:59.691Z,20.70
2022-12-08T17:09:28.552Z,21.93
2022-12-08T17:12:03.280Z,24.70
2022-12-08T17:14:34.282Z,20.73
2022-12-08T17:17:03.364Z,25.73
2022-12-08T17:19:31.877Z,23.57
2022-12-08T17:22:02.219Z,24.33
2022-12-08T17:24:30.926Z,25.23
2022-12-08T17:27:03.985Z,22.53
2022-12-08T17:29:33.031Z,26.80
2022-12-08T17:32:01.898Z,23.93
2022-12-08T17:34:30.456Z,22.63
2022-12-08T17:36:59.423Z,28.50
2022-12-08T17:39:29.483Z,27.07
2022-12-08T17:41:57.913Z,31.20
2022-12-08T17:44:28.094Z,38.10
2022-12-08T17:46:56.508Z,41.90
2022-12-08T17:49:26.454Z,46.47
2022-12-08T17:51:56.712Z,43.80
2022-12-08T17:54:26.361Z,33.37
2022-12-08T17:56:58.447Z,30.27
2022-12-08T17:59:28.813Z,27.00
2022-12-08T18:01:58.739Z,28.60
2022-12-08T18:04:28.780Z,33.37
2022-12-08T18:06:59.842Z,29.00
2022-12-08T18:09:31.421Z,28.53
2022-12-08T18:12:01.873Z,30.23
2022-12-08T18:14:30.326Z,32.30
2022-12-08T18:16:58.879Z,33.57
2022-12-08T18:19:27.917Z,38.50
2022-12-08T18:21:56.791Z,26.63
2022-12-08T18:24:25.372Z,27.23
2022-12-08T18:26:55.172Z,24.97
2022-12-08T18:29:26.159Z,27.07
2022-12-08T18:31:54.669Z,28.00
2022-12-08T18:34:23.596Z,29.30
2022-12-08T18:36:52.625Z,26.53
2022-12-08T18:39:23.731Z,29.87
2022-12-08T18:41:53.697Z,31.73
2022-12-08T18:44:22.157Z,32.20
2022-12-08T18:46:52.535Z,27.07
2022-12-08T18:49:21.089Z,34.53
2022-12-08T18:51:50.531Z,31.03
2022-12-08T18:54:22.084Z,29.50
2022-12-08T18:56:56.707Z,31.27
2022-12-08T18:59:25.728Z,29.63
2022-12-08T19:01:56.729Z,35.97
2022-12-08T19:04:29.215Z,30.93
2022-12-08T19:06:58.966Z,29.10
2022-12-08T19:09:28.935Z,31.70
2022-12-08T19:11:58.855Z,26.93
2022-12-08T19:14:28.691Z,30.83
2022-12-08T19:16:59.029Z,28.30
2022-12-08T19:19:28.498Z,29.20
2022-12-08T19:21:57.293Z,27.53
2022-12-08T19:24:26.641Z,25.30
2022-12-08T19:26:55.145Z,29.17
2022-12-08T19:29:24.286Z,26.17
2022-12-08T19:31:52.674Z,28.27
2022-12-08T19:34:23.395Z,28.77
2022-12-08T19:36:51.864Z,29.77
2022-12-08T19:39:40.557Z,28.77
2022-12-08T19:42:33.395Z,27.57
2022-12-08T19:45:05.724Z,30.93
2022-12-08T19:47:34.435Z,31.93
2022-12-08T19:50:24.348Z,30.00
2022-12-08T19:52:53.357Z,34.07
2022-12-08T19:55:23.869Z,27.37
2022-12-08T19:57:52.712Z,32.33
2022-12-08T20:00:23.244Z,39.37
2022-12-08T20:02:51.941Z,34.47
2022-12-08T20:05:22.810Z,28.03
2022-12-08T20:07:51.699Z,34.27
2022-12-08T20:10:25.434Z,29.73
2022-12-08T20:13:13.998Z,34.47
2022-12-08T20:15:43.883Z,39.33
2022-12-08T20:18:13.226Z,34.43
2022-12-08T20:20:44.996Z,33.53
2022-12-08T20:23:14.622Z,33.27
2022-12-08T20:25:46.023Z,30.33
2022-12-08T20:28:15.166Z,28.03
2022-12-08T20:30:46.801Z,37.10
2022-12-08T20:33:17.001Z,30.03
2022-12-08T20:35:49.079Z,30.53
2022-12-08T20:38:18.748Z,31.03
2022-12-08T20:40:47.604Z,31.30
2022-12-08T20:43:16.932Z,30.40
2022-12-08T20:45:45.900Z,31.17
2022-12-08T20:48:14.906Z,36.37
2022-12-08T20:50:43.461Z,27.67
2022-12-08T20:53:14.344Z,29.13
2022-12-08T20:55:43.524Z,29.73
2022-12-08T20:58:12.886Z,28.73
2022-12-08T21:00:41.774Z,28.03
2022-12-08T21:03:10.899Z,27.03
2022-12-08T21:05:39.887Z,26.03
2022-12-08T21:08:08.948Z,28.50
2022-12-08T21:10:43.630Z,24.87
2022-12-08T21:13:12.642Z,31.30
2022-12-08T21:15:47.065Z,28.07
2022-12-08T21:18:16.576Z,28.47
2022-12-08T21:20:45.506Z,32.30
2022-12-08T21:23:14.114Z,55.50
2022-12-08T21:25:45.793Z,46.63
2022-12-08T21:28:14.521Z,35.37
2022-12-08T21:30:43.860Z,29.67
2022-12-08T21:33:12.456Z,31.57
2022-12-08T21:35:41.826Z,29.23
2022-12-08T21:38:10.848Z,31.77
2022-12-08T21:40:40.296Z,32.03
2022-12-08T21:43:10.107Z,31.43
2022-12-08T21:45:39.087Z,28.93
2022-12-08T21:48:11.766Z,29.70
2022-12-08T21:50:41.466Z,30.20
2022-12-08T21:53:10.862Z,28.40
2022-12-08T21:55:40.744Z,31.07
2022-12-08T21:58:10.635Z,33.03
2022-12-08T22:00:39.806Z,36.17
2022-12-08T22:03:14.086Z,31.90
2022-12-08T22:05:43.748Z,32.80
2022-12-08T22:08:12.821Z,28.03
2022-12-08T22:10:41.375Z,43.77
2022-12-08T22:13:11.979Z,40.53
2022-12-08T22:15:40.360Z,35.50
2022-12-08T22:18:09.604Z,29.33
2022-12-08T22:20:43.555Z,30.90
2022-12-08T22:23:13.440Z,28.97
2022-12-08T22:25:42.235Z,31.53
2022-12-08T22:28:12.606Z,37.37
2022-12-08T22:30:41.905Z,32.27
2022-12-08T22:33:10.508Z,31.27
2022-12-08T22:35:40.043Z,33.47
2022-12-08T22:38:09.143Z,33.50
2022-12-08T22:40:41.126Z,35.37
2022-12-08T22:43:10.843Z,32.07
2022-12-08T22:45:40.935Z,30.33
2022-12-08T22:48:10.621Z,29.90
2022-12-08T22:50:39.321Z,29.27
2022-12-08T22:53:08.942Z,29.10
2022-12-08T22:55:42.815Z,31.83
2022-12-08T22:58:13.110Z,34.93
2022-12-08T23:00:43.674Z,36.00
2022-12-08T23:03:12.970Z,29.23
2022-12-08T23:05:41.912Z,30.93
2022-12-08T23:08:15.265Z,30.43
2022-12-08T23:10:44.834Z,30.43
2022-12-08T23:13:14.521Z,29.80
2022-12-08T23:15:45.160Z,29.47
2022-12-08T23:18:16.272Z,27.80
2022-12-08T23:20:44.658Z,27.57
2022-12-08T23:23:14.367Z,24.77
2022-12-08T23:25:43.887Z,27.50
2022-12-08T23:28:14.476Z,24.37
2022-12-08T23:30:44.271Z,28.23
2022-12-08T23:33:13.479Z,27.87
2022-12-08T23:35:41.934Z,27.03
2022-12-08T23:38:11.359Z,25.57
2022-12-08T23:40:39.799Z,28.67
2022-12-08T23:43:08.974Z,28.20
2022-12-08T23:45:37.937Z,28.47
2022-12-08T23:48:07.969Z,29.53
2022-12-08T23:50:36.381Z,28.63
2022-12-08T23:53:05.510Z,29.07
2022-12-08T23:55:33.949Z,30.27
2022-12-08T23:58:03.060Z,26.37
